Terminal Aerodrome Forecast
Issued by NWS Cleveland, OH

Home | Current Version | Previous Version | Graphics & Text | Print | Product List | Glossary On
Versions: 1 2 3 4 5 6 7 8 9 10 11 12 13 14 15 16 17 18 19 20 21
000
FTUS41 KCLE 231100
TAFCAK
TAF
KCAK 231125Z 2312/2412 21010KT 6SM -SHRA OVC035
     FM231500 18012KT P6SM OVC035
     FM232100 14012KT P6SM SCT020 OVC035
     FM240200 13015G25KT 5SM -SHRA SCT008 OVC018
     FM240700 18018G28KT P6SM VCSH BKN018 OVC025=

USA.gov is the U.S. government's official web portal to all federal, state and local government web resources and services.